sensor_id;sensor_type;location;lat;lon;timestamp;pressure;altitude;pressure_sealevel;temperature;humidity
80500;BME280;69823;54.120;-4.710;2023-07-31T00:01:18;98514.81;;;24.95;29.21
80500;BME280;69823;54.120;-4.710;2023-07-31T00:03:43;98516.65;;;25.27;29.14
80500;BME280;69823;54.120;-4.710;2023-07-31T00:06:09;98512.33;;;25.00;29.15
80500;BME280;69823;54.120;-4.710;2023-07-31T00:08:35;98511.48;;;24.97;29.20
80500;BME280;69823;54.120;-4.710;2023-07-31T00:11:01;98510.02;;;25.01;29.12
80500;BME280;69823;54.120;-4.710;2023-07-31T00:13:26;98508.90;;;25.22;29.18
80500;BME280;69823;54.120;-4.710;2023-07-31T00:15:52;98510.36;;;24.99;29.14
80500;BME280;69823;54.120;-4.710;2023-07-31T00:18:18;98508.90;;;25.22;29.18
80500;BME280;69823;54.120;-4.710;2023-07-31T00:20:44;98506.89;;;24.94;29.20
80500;BME280;69823;54.120;-4.710;2023-07-31T00:23:09;98504.18;;;25.21;29.17
80500;BME280;69823;54.120;-4.710;2023-07-31T00:25:35;98505.94;;;25.03;29.03
80500;BME280;69823;54.120;-4.710;2023-07-31T00:28:01;98506.04;;;25.03;29.06
80500;BME280;69823;54.120;-4.710;2023-07-31T00:30:26;98500.18;;;25.28;29.06
80500;BME280;69823;54.120;-4.710;2023-07-31T00:32:52;98497.35;;;25.04;29.01
80500;BME280;69823;54.120;-4.710;2023-07-31T00:35:18;98492.13;;;25.08;28.94
80500;BME280;69823;54.120;-4.710;2023-07-31T00:37:44;98492.75;;;25.02;29.04
80500;BME280;69823;54.120;-4.710;2023-07-31T00:40:09;98492.93;;;24.81;28.97
80500;BME280;69823;54.120;-4.710;2023-07-31T00:42:35;98496.58;;;25.03;28.97
80500;BME280;69823;54.120;-4.710;2023-07-31T00:45:01;98493.00;;;25.02;28.97
80500;BME280;69823;54.120;-4.710;2023-07-31T00:47:27;98485.43;;;25.01;28.98
80500;BME280;69823;54.120;-4.710;2023-07-31T00:49:52;98483.51;;;25.05;28.94
80500;BME280;69823;54.120;-4.710;2023-07-31T00:52:18;98482.72;;;25.03;29.00
80500;BME280;69823;54.120;-4.710;2023-07-31T00:54:44;98482.87;;;25.11;28.77
80500;BME280;69823;54.120;-4.710;2023-07-31T00:57:10;98481.65;;;25.10;28.83
80500;BME280;69823;54.120;-4.710;2023-07-31T00:59:35;98481.85;;;25.02;28.96
80500;BME280;69823;54.120;-4.710;2023-07-31T01:02:01;98479.59;;;24.95;29.05
80500;BME280;69823;54.120;-4.710;2023-07-31T01:04:27;98475.89;;;24.97;29.05
80500;BME280;69823;54.120;-4.710;2023-07-31T01:06:56;98473.51;;;24.97;29.05
80500;BME280;69823;54.120;-4.710;2023-07-31T01:09:27;98482.02;;;24.93;29.10
80500;BME280;69823;54.120;-4.710;2023-07-31T01:11:48;98479.64;;;24.91;29.13
80500;BME280;69823;54.120;-4.710;2023-07-31T01:14:10;98482.57;;;24.90;29.14
80500;BME280;69823;54.120;-4.710;2023-07-31T01:16:35;98479.86;;;24.94;29.07
80500;BME280;69823;54.120;-4.710;2023-07-31T01:19:01;98481.06;;;25.00;28.97
80500;BME280;69823;54.120;-4.710;2023-07-31T01:21:41;98475.49;;;24.95;29.05
80500;BME280;69823;54.120;-4.710;2023-07-31T01:24:14;98473.65;;;24.94;29.09
80500;BME280;69823;54.120;-4.710;2023-07-31T01:26:21;98469.58;;;24.94;29.06
80500;BME280;69823;54.120;-4.710;2023-07-31T01:28:50;98464.14;;;24.94;29.08
80500;BME280;69823;54.120;-4.710;2023-07-31T01:31:14;98456.00;;;24.94;29.08
80500;BME280;69823;54.120;-4.710;2023-07-31T01:33:36;98458.06;;;24.94;29.08
80500;BME280;69823;54.120;-4.710;2023-07-31T01:36:02;98458.25;;;25.01;28.99
80500;BME280;69823;54.120;-4.710;2023-07-31T01:38:27;98458.70;;;24.99;29.03
80500;BME280;69823;54.120;-4.710;2023-07-31T01:40:53;98454.90;;;24.97;29.05
80500;BME280;69823;54.120;-4.710;2023-07-31T01:43:19;98454.16;;;25.01;29.00
80500;BME280;69823;54.120;-4.710;2023-07-31T01:45:44;98452.54;;;24.99;28.99
80500;BME280;69823;54.120;-4.710;2023-07-31T01:48:10;98450.98;;;25.02;28.94
80500;BME280;69823;54.120;-4.710;2023-07-31T01:50:36;98448.52;;;25.24;28.99
80500;BME280;69823;54.120;-4.710;2023-07-31T01:53:02;98449.31;;;25.50;28.95
80500;BME280;69823;54.120;-4.710;2023-07-31T01:55:27;98446.38;;;25.06;28.85
80500;BME280;69823;54.120;-4.710;2023-07-31T01:57:53;98442.82;;;25.10;28.75
80500;BME280;69823;54.120;-4.710;2023-07-31T02:00:19;98443.40;;;25.53;28.80
80500;BME280;69823;54.120;-4.710;2023-07-31T02:02:45;98438.76;;;25.01;28.88
80500;BME280;69823;54.120;-4.710;2023-07-31T02:05:10;98438.28;;;25.00;28.91
80500;BME280;69823;54.120;-4.710;2023-07-31T02:07:36;98438.21;;;24.93;28.98
80500;BME280;69823;54.120;-4.710;2023-07-31T02:10:02;98440.60;;;24.94;28.97
80500;BME280;69823;54.120;-4.710;2023-07-31T02:12:28;98437.37;;;24.94;28.96
80500;BME280;69823;54.120;-4.710;2023-07-31T02:14:53;98436.94;;;25.01;28.84
80500;BME280;69823;54.120;-4.710;2023-07-31T02:17:19;98436.40;;;25.24;28.89
80500;BME280;69823;54.120;-4.710;2023-07-31T02:19:45;98431.21;;;25.00;28.85
80500;BME280;69823;54.120;-4.710;2023-07-31T02:22:10;98431.23;;;25.01;28.85
80500;BME280;69823;54.120;-4.710;2023-07-31T02:24:36;98426.93;;;25.23;28.91
80500;BME280;69823;54.120;-4.710;2023-07-31T02:27:02;98431.18;;;25.00;28.87
80500;BME280;69823;54.120;-4.710;2023-07-31T02:29:28;98434.26;;;25.00;28.85
80500;BME280;69823;54.120;-4.710;2023-07-31T02:31:53;98433.34;;;25.05;28.76
80500;BME280;69823;54.120;-4.710;2023-07-31T02:34:19;98438.93;;;25.06;28.77
80500;BME280;69823;54.120;-4.710;2023-07-31T02:36:45;98442.83;;;24.97;28.87
80500;BME280;69823;54.120;-4.710;2023-07-31T02:39:11;98442.08;;;25.06;28.71
80500;BME280;69823;54.120;-4.710;2023-07-31T02:41:36;98443.82;;;25.08;28.71
80500;BME280;69823;54.120;-4.710;2023-07-31T02:44:02;98442.88;;;25.00;28.80
80500;BME280;69823;54.120;-4.710;2023-07-31T02:46:28;98444.93;;;25.35;28.66
80500;BME280;69823;54.120;-4.710;2023-07-31T02:48:54;98443.30;;;25.01;28.86
80500;BME280;69823;54.120;-4.710;2023-07-31T02:51:19;98443.03;;;25.02;28.75
80500;BME280;69823;54.120;-4.710;2023-07-31T02:53:45;98445.21;;;25.09;28.65
80500;BME280;69823;54.120;-4.710;2023-07-31T02:56:11;98444.71;;;25.28;28.74
80500;BME280;69823;54.120;-4.710;2023-07-31T02:58:37;98447.45;;;24.96;28.86
80500;BME280;69823;54.120;-4.710;2023-07-31T03:01:02;98444.87;;;24.98;28.84
80500;BME280;69823;54.120;-4.710;2023-07-31T03:03:28;98451.02;;;25.08;28.62
80500;BME280;69823;54.120;-4.710;2023-07-31T03:05:54;98445.93;;;25.00;28.78
80500;BME280;69823;54.120;-4.710;2023-07-31T03:08:20;98439.80;;;25.24;28.71
80500;BME280;69823;54.120;-4.710;2023-07-31T03:10:45;98438.51;;;25.25;28.68
80500;BME280;69823;54.120;-4.710;2023-07-31T03:13:11;98437.04;;;24.99;28.70
80500;BME280;69823;54.120;-4.710;2023-07-31T03:15:37;98439.08;;;24.91;28.84
80500;BME280;69823;54.120;-4.710;2023-07-31T03:18:02;98437.64;;;24.94;28.79
80500;BME280;69823;54.120;-4.710;2023-07-31T03:20:28;98435.76;;;25.15;28.78
80500;BME280;69823;54.120;-4.710;2023-07-31T03:22:54;98425.90;;;24.91;28.81
80500;BME280;69823;54.120;-4.710;2023-07-31T03:25:20;98426.34;;;24.94;28.77
80500;BME280;69823;54.120;-4.710;2023-07-31T03:27:45;98420.15;;;25.21;28.66
80500;BME280;69823;54.120;-4.710;2023-07-31T03:30:11;98414.81;;;24.99;28.64
80500;BME280;69823;54.120;-4.710;2023-07-31T03:32:37;98422.74;;;25.01;28.60
80500;BME280;69823;54.120;-4.710;2023-07-31T03:35:04;98427.91;;;24.94;28.73
80500;BME280;69823;54.120;-4.710;2023-07-31T03:37:28;98429.64;;;24.94;28.69
80500;BME280;69823;54.120;-4.710;2023-07-31T03:39:54;98426.61;;;25.00;28.63
80500;BME280;69823;54.120;-4.710;2023-07-31T03:42:20;98424.65;;;24.97;28.66
80500;BME280;69823;54.120;-4.710;2023-07-31T03:44:46;98425.79;;;24.94;28.77
80500;BME280;69823;54.120;-4.710;2023-07-31T03:47:11;98414.25;;;24.90;28.78
80500;BME280;69823;54.120;-4.710;2023-07-31T03:49:37;98416.16;;;24.85;28.81
80500;BME280;69823;54.120;-4.710;2023-07-31T03:52:03;98422.19;;;24.92;28.72
80500;BME280;69823;54.120;-4.710;2023-07-31T03:54:28;98427.81;;;24.90;28.77
80500;BME280;69823;54.120;-4.710;2023-07-31T03:56:55;98425.07;;;25.46;28.63
80500;BME280;69823;54.120;-4.710;2023-07-31T03:59:20;98420.37;;;25.27;28.53
80500;BME280;69823;54.120;-4.710;2023-07-31T04:01:46;98418.39;;;25.01;28.61
80500;BME280;69823;54.120;-4.710;2023-07-31T04:04:11;98414.06;;;25.32;28.47
80500;BME280;69823;54.120;-4.710;2023-07-31T04:06:37;98415.13;;;25.33;28.48
80500;BME280;69823;54.120;-4.710;2023-07-31T04:09:03;98417.22;;;25.01;28.59
80500;BME280;69823;54.120;-4.710;2023-07-31T04:11:29;98421.42;;;25.24;28.63
80500;BME280;69823;54.120;-4.710;2023-07-31T04:13:54;98419.26;;;24.96;28.63
80500;BME280;69823;54.120;-4.710;2023-07-31T04:16:20;98415.43;;;25.01;28.53
80500;BME280;69823;54.120;-4.710;2023-07-31T04:18:46;98414.74;;;25.03;28.59
80500;BME280;69823;54.120;-4.710;2023-07-31T04:21:12;98414.81;;;25.03;28.56
80500;BME280;69823;54.120;-4.710;2023-07-31T04:23:38;98414.54;;;24.94;28.64
80500;BME280;69823;54.120;-4.710;2023-07-31T04:26:03;98414.84;;;25.01;28.52
80500;BME280;69823;54.120;-4.710;2023-07-31T04:28:29;98414.74;;;25.02;28.49
80500;BME280;69823;54.120;-4.710;2023-07-31T04:30:54;98409.62;;;25.00;28.50
80500;BME280;69823;54.120;-4.710;2023-07-31T04:33:20;98407.64;;;25.17;28.64
80500;BME280;69823;54.120;-4.710;2023-07-31T04:35:50;98411.07;;;24.91;28.65
80500;BME280;69823;54.120;-4.710;2023-07-31T04:38:12;98401.31;;;24.95;28.58
80500;BME280;69823;54.120;-4.710;2023-07-31T04:40:37;98394.66;;;24.83;28.75
80500;BME280;69823;54.120;-4.710;2023-07-31T04:43:03;98381.94;;;24.87;28.66
80500;BME280;69823;54.120;-4.710;2023-07-31T04:45:29;98380.78;;;25.34;28.66
80500;BME280;69823;54.120;-4.710;2023-07-31T04:47:55;98375.05;;;24.78;28.80
80500;BME280;69823;54.120;-4.710;2023-07-31T04:50:20;98371.80;;;24.68;28.62
80500;BME280;69823;54.120;-4.710;2023-07-31T04:52:46;98373.61;;;25.01;28.75
80500;BME280;69823;54.120;-4.710;2023-07-31T04:55:12;98373.16;;;24.73;28.83
80500;BME280;69823;54.120;-4.710;2023-07-31T04:57:38;98378.27;;;24.80;28.73
80500;BME280;69823;54.120;-4.710;2023-07-31T05:00:04;98379.56;;;24.83;28.63
80500;BME280;69823;54.120;-4.710;2023-07-31T05:02:29;98381.10;;;24.80;28.65
80500;BME280;69823;54.120;-4.710;2023-07-31T05:04:55;98388.83;;;24.76;28.74
80500;BME280;69823;54.120;-4.710;2023-07-31T05:07:20;98394.73;;;25.29;28.67
80500;BME280;69823;54.120;-4.710;2023-07-31T05:09:46;98397.34;;;25.14;28.53
80500;BME280;69823;54.120;-4.710;2023-07-31T05:12:12;98396.81;;;24.66;28.53
80500;BME280;69823;54.120;-4.710;2023-07-31T05:14:38;98405.68;;;25.14;28.56
80500;BME280;69823;54.120;-4.710;2023-07-31T05:17:04;98409.25;;;24.95;28.51
80500;BME280;69823;54.120;-4.710;2023-07-31T05:19:30;98410.45;;;25.19;28.48
80500;BME280;69823;54.120;-4.710;2023-07-31T05:21:55;98409.85;;;24.90;28.54
80500;BME280;69823;54.120;-4.710;2023-07-31T05:24:21;98406.97;;;24.96;28.46
80500;BME280;69823;54.120;-4.710;2023-07-31T05:26:46;98402.89;;;24.98;28.41
80500;BME280;69823;54.120;-4.710;2023-07-31T05:29:12;98399.64;;;24.92;28.52
80500;BME280;69823;54.120;-4.710;2023-07-31T05:31:38;98394.79;;;24.99;28.36
80500;BME280;69823;54.120;-4.710;2023-07-31T05:34:04;98387.80;;;24.89;28.47
80500;BME280;69823;54.120;-4.710;2023-07-31T05:36:29;98379.31;;;25.07;28.62
80500;BME280;69823;54.120;-4.710;2023-07-31T05:38:55;98374.89;;;25.11;28.54
80500;BME280;69823;54.120;-4.710;2023-07-31T05:41:21;98365.82;;;24.87;28.57
80500;BME280;69823;54.120;-4.710;2023-07-31T05:43:46;98369.76;;;24.97;28.37
80500;BME280;69823;54.120;-4.710;2023-07-31T05:46:12;98381.40;;;25.03;28.65
80500;BME280;69823;54.120;-4.710;2023-07-31T05:48:38;98382.57;;;24.82;28.63
80500;BME280;69823;54.120;-4.710;2023-07-31T05:51:04;98383.66;;;25.07;28.59
80500;BME280;69823;54.120;-4.710;2023-07-31T05:53:29;98384.18;;;25.03;28.67
80500;BME280;69823;54.120;-4.710;2023-07-31T05:55:55;98390.98;;;25.13;28.48
80500;BME280;69823;54.120;-4.710;2023-07-31T05:58:21;98393.34;;;24.91;28.46
80500;BME280;69823;54.120;-4.710;2023-07-31T06:00:47;98401.23;;;24.92;28.44
80500;BME280;69823;54.120;-4.710;2023-07-31T06:03:12;98405.56;;;24.89;28.55
80500;BME280;69823;54.120;-4.710;2023-07-31T06:05:38;98404.61;;;24.92;28.43
80500;BME280;69823;54.120;-4.710;2023-07-31T06:08:04;98406.17;;;24.96;28.39
80500;BME280;69823;54.120;-4.710;2023-07-31T06:10:29;98407.39;;;25.19;28.42
80500;BME280;69823;54.120;-4.710;2023-07-31T06:12:55;98406.11;;;24.76;28.78
80500;BME280;69823;54.120;-4.710;2023-07-31T06:15:21;98409.19;;;24.82;28.64
80500;BME280;69823;54.120;-4.710;2023-07-31T06:17:47;98401.74;;;24.81;28.61
80500;BME280;69823;54.120;-4.710;2023-07-31T06:20:12;98395.13;;;24.88;28.47
80500;BME280;69823;54.120;-4.710;2023-07-31T06:22:38;98388.75;;;24.81;28.56
80500;BME280;69823;54.120;-4.710;2023-07-31T06:25:05;98385.94;;;24.82;28.56
80500;BME280;69823;54.120;-4.710;2023-07-31T06:27:30;98393.69;;;25.37;28.44
80500;BME280;69823;54.120;-4.710;2023-07-31T06:29:55;98392.42;;;24.86;28.48
80500;BME280;69823;54.120;-4.710;2023-07-31T06:32:21;98395.70;;;25.06;28.54
80500;BME280;69823;54.120;-4.710;2023-07-31T06:34:47;98386.16;;;25.34;28.49
80500;BME280;69823;54.120;-4.710;2023-07-31T06:37:12;98390.61;;;24.86;28.49
80500;BME280;69823;54.120;-4.710;2023-07-31T06:39:38;98399.41;;;25.00;28.59
80500;BME280;69823;54.120;-4.710;2023-07-31T06:42:04;98404.40;;;24.75;28.64
80500;BME280;69823;54.120;-4.710;2023-07-31T06:44:30;98405.64;;;25.06;28.50
80500;BME280;69823;54.120;-4.710;2023-07-31T06:46:55;98397.07;;;24.83;28.53
80500;BME280;69823;54.120;-4.710;2023-07-31T06:49:21;98398.53;;;25.08;28.48
80500;BME280;69823;54.120;-4.710;2023-07-31T06:51:47;98392.21;;;24.98;28.58
80500;BME280;69823;54.120;-4.710;2023-07-31T06:54:13;98401.40;;;24.70;28.67
80500;BME280;69823;54.120;-4.710;2023-07-31T06:56:38;98405.24;;;25.04;28.56
80500;BME280;69823;54.120;-4.710;2023-07-31T06:59:04;98406.23;;;25.12;28.45
80500;BME280;69823;54.120;-4.710;2023-07-31T07:01:30;98415.50;;;24.96;28.70
80500;BME280;69823;54.120;-4.710;2023-07-31T07:03:56;98415.35;;;24.75;28.63
80500;BME280;69823;54.120;-4.710;2023-07-31T07:06:22;98422.35;;;25.02;28.61
80500;BME280;69823;54.120;-4.710;2023-07-31T07:08:47;98430.54;;;25.06;28.52
80500;BME280;69823;54.120;-4.710;2023-07-31T07:11:13;98421.98;;;24.79;28.50
80500;BME280;69823;54.120;-4.710;2023-07-31T07:13:38;98419.22;;;24.83;28.67
80500;BME280;69823;54.120;-4.710;2023-07-31T07:16:04;98420.18;;;25.19;28.59
80500;BME280;69823;54.120;-4.710;2023-07-31T07:18:30;98418.94;;;24.93;28.53
80500;BME280;69823;54.120;-4.710;2023-07-31T07:20:56;98415.69;;;24.80;28.62
80500;BME280;69823;54.120;-4.710;2023-07-31T07:23:21;98413.04;;;25.00;28.69
80500;BME280;69823;54.120;-4.710;2023-07-31T07:25:47;98414.80;;;25.04;28.76
80500;BME280;69823;54.120;-4.710;2023-07-31T07:28:13;98405.69;;;24.45;29.30
80500;BME280;69823;54.120;-4.710;2023-07-31T07:30:38;98395.66;;;24.44;29.51
80500;BME280;69823;54.120;-4.710;2023-07-31T07:33:04;98405.45;;;24.36;29.70
80500;BME280;69823;54.120;-4.710;2023-07-31T07:35:30;98410.35;;;24.46;29.74
80500;BME280;69823;54.120;-4.710;2023-07-31T07:37:56;98420.78;;;24.02;29.79
80500;BME280;69823;54.120;-4.710;2023-07-31T07:40:21;98426.03;;;23.97;29.80
80500;BME280;69823;54.120;-4.710;2023-07-31T07:42:47;98420.44;;;24.34;29.98
80500;BME280;69823;54.120;-4.710;2023-07-31T07:45:13;98417.61;;;24.29;29.90
80500;BME280;69823;54.120;-4.710;2023-07-31T07:47:40;98418.09;;;24.45;30.09
80500;BME280;69823;54.120;-4.710;2023-07-31T07:50:05;98413.91;;;24.27;30.03
80500;BME280;69823;54.120;-4.710;2023-07-31T07:52:30;98411.69;;;24.21;29.89
80500;BME280;69823;54.120;-4.710;2023-07-31T07:54:55;98405.09;;;23.99;30.19
80500;BME280;69823;54.120;-4.710;2023-07-31T07:57:21;98385.60;;;24.52;29.82
80500;BME280;69823;54.120;-4.710;2023-07-31T07:59:47;98381.76;;;24.46;29.72
80500;BME280;69823;54.120;-4.710;2023-07-31T08:02:13;98382.61;;;24.53;29.71
80500;BME280;69823;54.120;-4.710;2023-07-31T08:04:38;98375.43;;;24.62;29.44
80500;BME280;69823;54.120;-4.710;2023-07-31T08:07:04;98378.96;;;24.61;29.56
80500;BME280;69823;54.120;-4.710;2023-07-31T08:09:30;98369.58;;;24.71;29.21
80500;BME280;69823;54.120;-4.710;2023-07-31T08:11:56;98358.98;;;24.68;29.27
80500;BME280;69823;54.120;-4.710;2023-07-31T08:14:22;98364.98;;;24.48;29.25
80500;BME280;69823;54.120;-4.710;2023-07-31T08:16:47;98372.45;;;24.49;29.25
80500;BME280;69823;54.120;-4.710;2023-07-31T08:19:13;98370.62;;;24.45;29.24
80500;BME280;69823;54.120;-4.710;2023-07-31T08:21:39;98365.26;;;24.71;29.18
80500;BME280;69823;54.120;-4.710;2023-07-31T08:24:04;98377.72;;;24.42;29.44
80500;BME280;69823;54.120;-4.710;2023-07-31T08:26:30;98376.33;;;24.65;29.29
80500;BME280;69823;54.120;-4.710;2023-07-31T08:28:56;98376.01;;;24.66;29.39
80500;BME280;69823;54.120;-4.710;2023-07-31T08:31:22;98374.47;;;24.95;29.17
80500;BME280;69823;54.120;-4.710;2023-07-31T08:33:47;98377.00;;;24.88;29.42
80500;BME280;69823;54.120;-4.710;2023-07-31T08:36:13;98375.04;;;24.91;29.17
80500;BME280;69823;54.120;-4.710;2023-07-31T08:38:39;98375.73;;;24.60;29.29
80500;BME280;69823;54.120;-4.710;2023-07-31T08:41:05;98368.36;;;24.33;29.47
80500;BME280;69823;54.120;-4.710;2023-07-31T08:43:31;98362.98;;;24.58;29.44
80500;BME280;69823;54.120;-4.710;2023-07-31T08:45:56;98351.58;;;24.50;29.53
80500;BME280;69823;54.120;-4.710;2023-07-31T08:48:23;98348.33;;;24.34;29.41
80500;BME280;69823;54.120;-4.710;2023-07-31T08:50:48;98344.21;;;24.81;29.47
80500;BME280;69823;54.120;-4.710;2023-07-31T08:53:13;98350.19;;;24.51;29.47
80500;BME280;69823;54.120;-4.710;2023-07-31T08:55:40;98348.26;;;24.52;29.46
80500;BME280;69823;54.120;-4.710;2023-07-31T08:58:05;98339.27;;;24.63;29.25
80500;BME280;69823;54.120;-4.710;2023-07-31T09:00:31;98334.93;;;24.66;29.25
80500;BME280;69823;54.120;-4.710;2023-07-31T09:02:59;98337.06;;;24.85;29.20
80500;BME280;69823;54.120;-4.710;2023-07-31T09:05:23;98339.29;;;24.70;29.10
80500;BME280;69823;54.120;-4.710;2023-07-31T09:07:50;98341.65;;;24.77;29.02
80500;BME280;69823;54.120;-4.710;2023-07-31T09:10:14;98339.64;;;24.36;29.17
80500;BME280;69823;54.120;-4.710;2023-07-31T09:12:39;98347.16;;;24.40;29.14
80500;BME280;69823;54.120;-4.710;2023-07-31T09:15:06;98349.05;;;24.72;29.13
80500;BME280;69823;54.120;-4.710;2023-07-31T09:17:32;98353.44;;;24.86;29.29
80500;BME280;69823;54.120;-4.710;2023-07-31T09:19:57;98355.21;;;24.36;29.28
80500;BME280;69823;54.120;-4.710;2023-07-31T09:22:31;98359.20;;;24.64;29.24
80500;BME280;69823;54.120;-4.710;2023-07-31T09:24:48;98349.99;;;24.71;29.14
80500;BME280;69823;54.120;-4.710;2023-07-31T09:27:14;98354.19;;;24.78;29.40
80500;BME280;69823;54.120;-4.710;2023-07-31T09:29:40;98353.40;;;24.47;29.62
80500;BME280;69823;54.120;-4.710;2023-07-31T09:32:15;98354.16;;;24.53;29.64
80500;BME280;69823;54.120;-4.710;2023-07-31T09:34:37;98354.86;;;24.59;29.80
80500;BME280;69823;54.120;-4.710;2023-07-31T09:36:58;98356.37;;;24.62;29.32
80500;BME280;69823;54.120;-4.710;2023-07-31T09:39:23;98363.25;;;24.86;29.53
80500;BME280;69823;54.120;-4.710;2023-07-31T09:41:54;98376.18;;;24.56;29.56
80500;BME280;69823;54.120;-4.710;2023-07-31T09:44:14;98381.86;;;24.40;29.42
80500;BME280;69823;54.120;-4.710;2023-07-31T09:46:40;98385.14;;;24.67;29.30
80500;BME280;69823;54.120;-4.710;2023-07-31T09:49:07;98388.76;;;24.67;29.41
80500;BME280;69823;54.120;-4.710;2023-07-31T09:51:31;98392.29;;;24.43;29.45
80500;BME280;69823;54.120;-4.710;2023-07-31T09:53:57;98396.78;;;24.54;29.68
80500;BME280;69823;54.120;-4.710;2023-07-31T09:56:23;98392.98;;;24.41;29.81
80500;BME280;69823;54.120;-4.710;2023-07-31T09:58:49;98391.12;;;25.12;29.12
80500;BME280;69823;54.120;-4.710;2023-07-31T10:01:14;98375.03;;;25.10;29.14
80500;BME280;69823;54.120;-4.710;2023-07-31T10:03:40;98370.24;;;24.79;29.25
80500;BME280;69823;54.120;-4.710;2023-07-31T10:06:09;98368.11;;;24.79;29.16
80500;BME280;69823;54.120;-4.710;2023-07-31T10:08:34;98370.54;;;24.61;29.18
80500;BME280;69823;54.120;-4.710;2023-07-31T10:10:59;98371.49;;;24.90;29.41
80500;BME280;69823;54.120;-4.710;2023-07-31T10:13:24;98376.23;;;24.41;29.44
80500;BME280;69823;54.120;-4.710;2023-07-31T10:15:49;98375.10;;;24.94;28.98
80500;BME280;69823;54.120;-4.710;2023-07-31T10:18:14;98376.94;;;24.82;29.16
80500;BME280;69823;54.120;-4.710;2023-07-31T10:20:40;98379.50;;;24.69;29.30
80500;BME280;69823;54.120;-4.710;2023-07-31T10:23:06;98380.00;;;24.72;29.41
80500;BME280;69823;54.120;-4.710;2023-07-31T10:25:32;98369.88;;;24.82;29.57
80500;BME280;69823;54.120;-4.710;2023-07-31T10:27:57;98365.76;;;24.26;29.60
80500;BME280;69823;54.120;-4.710;2023-07-31T10:30:29;98368.31;;;24.81;29.48
80500;BME280;69823;54.120;-4.710;2023-07-31T10:32:50;98363.42;;;24.62;29.60
80500;BME280;69823;54.120;-4.710;2023-07-31T10:35:15;98361.27;;;24.94;29.10
80500;BME280;69823;54.120;-4.710;2023-07-31T10:37:41;98364.78;;;24.83;29.11
80500;BME280;69823;54.120;-4.710;2023-07-31T10:40:10;98366.33;;;24.82;28.88
80500;BME280;69823;54.120;-4.710;2023-07-31T10:42:34;98368.04;;;25.08;28.78
80500;BME280;69823;54.120;-4.710;2023-07-31T10:44:58;98369.80;;;25.09;28.82
80500;BME280;69823;54.120;-4.710;2023-07-31T10:47:23;98369.11;;;25.23;28.88
80500;BME280;69823;54.120;-4.710;2023-07-31T10:49:49;98371.21;;;24.86;28.72
80500;BME280;69823;54.120;-4.710;2023-07-31T10:52:19;98371.74;;;25.04;28.82
80500;BME280;69823;54.120;-4.710;2023-07-31T10:54:40;98370.68;;;25.16;29.05
80500;BME280;69823;54.120;-4.710;2023-07-31T10:59:34;98375.31;;;25.29;28.66
80500;BME280;69823;54.120;-4.710;2023-07-31T11:01:57;98377.54;;;24.41;29.23
80500;BME280;69823;54.120;-4.710;2023-07-31T11:04:24;98376.25;;;24.59;29.38
80500;BME280;69823;54.120;-4.710;2023-07-31T11:06:55;98380.60;;;24.98;29.16
80500;BME280;69823;54.120;-4.710;2023-07-31T11:09:15;98385.98;;;24.61;29.60
80500;BME280;69823;54.120;-4.710;2023-07-31T11:11:40;98391.75;;;24.33;29.79
80500;BME280;69823;54.120;-4.710;2023-07-31T11:14:06;98385.99;;;24.26;29.83
80500;BME280;69823;54.120;-4.710;2023-07-31T11:16:32;98391.03;;;24.29;29.93
80500;BME280;69823;54.120;-4.710;2023-07-31T11:18:58;98381.83;;;24.59;29.83
80500;BME280;69823;54.120;-4.710;2023-07-31T11:21:24;98389.19;;;24.25;29.91
80500;BME280;69823;54.120;-4.710;2023-07-31T11:23:51;98388.37;;;24.23;29.94
80500;BME280;69823;54.120;-4.710;2023-07-31T11:26:15;98393.01;;;24.24;29.99
80500;BME280;69823;54.120;-4.710;2023-07-31T11:28:41;98396.01;;;23.94;29.93
80500;BME280;69823;54.120;-4.710;2023-07-31T11:31:08;98398.85;;;24.31;30.22
80500;BME280;69823;54.120;-4.710;2023-07-31T11:33:32;98403.90;;;24.17;30.03
80500;BME280;69823;54.120;-4.710;2023-07-31T11:35:58;98407.90;;;23.83;30.17
80500;BME280;69823;54.120;-4.710;2023-07-31T11:38:25;98408.68;;;24.12;30.21
80500;BME280;69823;54.120;-4.710;2023-07-31T11:40:50;98410.59;;;24.30;29.85
80500;BME280;69823;54.120;-4.710;2023-07-31T11:43:15;98410.96;;;24.55;29.76
80500;BME280;69823;54.120;-4.710;2023-07-31T11:45:41;98412.26;;;24.19;29.47
80500;BME280;69823;54.120;-4.710;2023-07-31T11:48:07;98412.88;;;24.21;29.40
80500;BME280;69823;54.120;-4.710;2023-07-31T11:50:33;98408.59;;;24.82;29.26
80500;BME280;69823;54.120;-4.710;2023-07-31T11:53:00;98405.21;;;24.35;29.43
80500;BME280;69823;54.120;-4.710;2023-07-31T11:55:25;98407.27;;;24.47;29.64
80500;BME280;69823;54.120;-4.710;2023-07-31T11:57:51;98405.34;;;24.48;29.51
80500;BME280;69823;54.120;-4.710;2023-07-31T12:00:16;98401.99;;;24.82;29.55
80500;BME280;69823;54.120;-4.710;2023-07-31T12:02:42;98401.12;;;24.20;29.45
80500;BME280;69823;54.120;-4.710;2023-07-31T12:05:10;98401.20;;;24.86;28.99
80500;BME280;69823;54.120;-4.710;2023-07-31T12:07:46;98394.12;;;25.00;28.76
80500;BME280;69823;54.120;-4.710;2023-07-31T12:09:59;98391.74;;;25.15;28.91
80500;BME280;69823;54.120;-4.710;2023-07-31T12:12:25;98386.80;;;24.78;29.04
80500;BME280;69823;54.120;-4.710;2023-07-31T12:14:50;98378.11;;;24.90;28.86
80500;BME280;69823;54.120;-4.710;2023-07-31T12:17:17;98372.77;;;24.82;29.12
80500;BME280;69823;54.120;-4.710;2023-07-31T12:19:42;98362.85;;;24.40;29.68
80500;BME280;69823;54.120;-4.710;2023-07-31T12:22:12;98357.84;;;24.59;29.87
80500;BME280;69823;54.120;-4.710;2023-07-31T12:24:34;98354.78;;;24.38;29.74
80500;BME280;69823;54.120;-4.710;2023-07-31T12:26:59;98352.95;;;24.11;29.77
80500;BME280;69823;54.120;-4.710;2023-07-31T12:29:33;98353.36;;;23.96;29.82
80500;BME280;69823;54.120;-4.710;2023-07-31T12:31:50;98351.45;;;24.47;29.83
80500;BME280;69823;54.120;-4.710;2023-07-31T12:34:17;98348.26;;;24.10;29.66
80500;BME280;69823;54.120;-4.710;2023-07-31T12:36:42;98347.14;;;24.69;29.65
80500;BME280;69823;54.120;-4.710;2023-07-31T12:39:08;98341.95;;;24.37;29.41
80500;BME280;69823;54.120;-4.710;2023-07-31T12:41:33;98341.88;;;24.85;29.47
80500;BME280;69823;54.120;-4.710;2023-07-31T12:43:59;98340.79;;;24.94;29.09